createdAt,value
2018-08-03T00:02:09.692Z,15.10
2018-08-03T00:04:37.619Z,15.10
2018-08-03T00:07:05.616Z,15.20
2018-08-03T00:09:33.375Z,15.30
2018-08-03T00:12:01.158Z,15.10
2018-08-03T00:14:28.941Z,15.00
2018-08-03T00:16:56.856Z,14.90
2018-08-03T00:19:24.640Z,15.00
2018-08-03T00:21:52.391Z,15.00
2018-08-03T00:24:20.147Z,15.00
2018-08-03T00:26:47.995Z,15.00
2018-08-03T00:29:15.797Z,15.00
2018-08-03T00:31:43.596Z,15.00
2018-08-03T00:34:11.355Z,14.90
2018-08-03T00:39:45.719Z,14.70
2018-08-03T00:42:13.516Z,14.60
2018-08-03T00:44:41.242Z,14.70
2018-08-03T00:47:08.999Z,14.70
2018-08-03T00:49:36.771Z,14.70
2018-08-03T00:52:04.523Z,14.70
2018-08-03T00:54:32.347Z,14.80
2018-08-03T00:57:00.091Z,14.80
2018-08-03T00:59:27.867Z,14.80
2018-08-03T01:01:55.660Z,14.80
2018-08-03T01:04:23.415Z,14.80
2018-08-03T01:06:51.214Z,14.90
2018-08-03T01:09:18.982Z,14.80
2018-08-03T01:11:46.709Z,14.80
2018-08-03T01:14:14.469Z,14.90
2018-08-03T01:17:17.124Z,14.80
2018-08-03T01:19:44.885Z,14.80
2018-08-03T01:22:12.604Z,14.70
2018-08-03T01:24:40.375Z,14.60
2018-08-03T01:27:08.183Z,14.50
2018-08-03T01:29:36.014Z,14.30
2018-08-03T01:32:04.738Z,14.10
2018-08-03T01:34:32.496Z,14.00
2018-08-03T01:37:00.285Z,13.90
2018-08-03T01:39:28.008Z,13.90
2018-08-03T01:41:55.730Z,13.90
2018-08-03T01:44:23.436Z,13.90
2018-08-03T01:46:51.433Z,14.00
2018-08-03T01:49:19.340Z,14.00
2018-08-03T01:51:47.262Z,14.20
2018-08-03T01:54:15.288Z,14.30
2018-08-03T01:56:43.164Z,14.30
2018-08-03T01:59:11.157Z,14.20
2018-08-03T02:01:39.045Z,14.10
2018-08-03T02:04:06.944Z,14.10
2018-08-03T02:06:34.864Z,14.20
2018-08-03T02:09:04.200Z,14.30
2018-08-03T02:11:32.058Z,14.30
2018-08-03T02:14:00.037Z,14.30
2018-08-03T02:16:27.930Z,14.30
2018-08-03T02:18:55.916Z,14.20
2018-08-03T02:21:23.810Z,14.10
2018-08-03T02:23:51.752Z,14.10
2018-08-03T02:26:19.657Z,14.10
2018-08-03T02:28:47.540Z,14.00
2018-08-03T02:31:15.463Z,13.80
2018-08-03T02:33:43.454Z,13.70
2018-08-03T02:36:11.312Z,13.60
2018-08-03T02:38:39.227Z,13.50
2018-08-03T02:41:07.138Z,13.40
2018-08-03T02:43:35.098Z,13.40
2018-08-03T02:48:55.390Z,13.40
2018-08-03T02:51:23.132Z,13.50
2018-08-03T02:53:50.856Z,13.60
2018-08-03T02:56:18.640Z,13.60
2018-08-03T02:58:46.427Z,13.50
2018-08-03T03:01:14.159Z,13.50
2018-08-03T03:03:41.904Z,13.40
2018-08-03T03:06:09.652Z,13.30
2018-08-03T03:08:37.430Z,13.30
2018-08-03T03:11:05.144Z,13.40
2018-08-03T03:13:32.917Z,13.50
2018-08-03T03:16:00.660Z,13.40
2018-08-03T03:18:29.489Z,13.30
2018-08-03T03:20:57.224Z,13.40
2018-08-03T03:23:25.053Z,13.40
2018-08-03T03:25:52.825Z,13.40
2018-08-03T03:28:20.570Z,13.30
2018-08-03T03:30:48.310Z,13.30
2018-08-03T03:33:16.079Z,13.20
2018-08-03T03:35:43.791Z,13.10
2018-08-03T03:38:11.537Z,13.00
2018-08-03T03:40:39.266Z,13.00
2018-08-03T03:43:07.072Z,13.00
2018-08-03T03:45:34.936Z,12.90
2018-08-03T03:48:02.624Z,12.80
2018-08-03T03:50:30.414Z,12.90
2018-08-03T03:52:58.178Z,12.80
2018-08-03T03:55:25.911Z,12.80
2018-08-03T03:57:53.693Z,12.80
2018-08-03T04:00:21.469Z,12.90
2018-08-03T04:02:49.220Z,12.90
2018-08-03T04:05:17.012Z,13.10
2018-08-03T04:07:44.764Z,13.30
2018-08-03T04:10:12.555Z,13.40
2018-08-03T04:12:48.366Z,13.40
2018-08-03T04:15:16.132Z,13.40
2018-08-03T04:17:43.930Z,13.50
2018-08-03T04:20:11.671Z,13.40
2018-08-03T04:22:39.419Z,13.40
2018-08-03T04:25:07.230Z,13.50
2018-08-03T04:27:35.118Z,13.60
2018-08-03T04:30:03.039Z,13.60
2018-08-03T04:32:30.752Z,13.60
2018-08-03T04:34:58.515Z,13.60
2018-08-03T04:37:26.243Z,13.60
2018-08-03T04:39:54.395Z,13.70
2018-08-03T04:42:22.333Z,13.70
2018-08-03T04:44:49.953Z,13.70
2018-08-03T04:47:17.735Z,13.70
2018-08-03T04:49:45.463Z,13.70
2018-08-03T04:55:49.723Z,13.90
2018-08-03T04:58:17.636Z,14.10
2018-08-03T05:00:45.494Z,14.30
2018-08-03T05:03:13.470Z,14.30
2018-08-03T05:05:41.322Z,14.40
2018-08-03T05:08:09.381Z,14.40
2018-08-03T05:10:37.224Z,14.50
2018-08-03T05:13:05.220Z,14.70
2018-08-03T05:15:33.304Z,14.80
2018-08-03T05:18:01.195Z,15.20
2018-08-03T05:20:29.187Z,15.30
2018-08-03T05:22:57.129Z,15.50
2018-08-03T05:25:25.020Z,15.90
2018-08-03T05:27:53.010Z,16.20
2018-08-03T05:30:20.925Z,16.60
2018-08-03T05:32:48.964Z,16.90
2018-08-03T05:35:16.860Z,17.30
2018-08-03T05:37:44.880Z,17.60
2018-08-03T05:40:12.772Z,17.90
2018-08-03T05:42:40.779Z,18.20
2018-08-03T05:45:08.979Z,18.40
2018-08-03T05:47:36.934Z,18.70
2018-08-03T05:50:05.270Z,19.00
2018-08-03T05:52:33.225Z,19.30
2018-08-03T05:55:01.050Z,19.60
2018-08-03T05:57:28.840Z,19.80
2018-08-03T05:59:56.697Z,19.90
2018-08-03T06:02:24.752Z,20.00
2018-08-03T06:04:52.648Z,20.00
2018-08-03T06:07:20.618Z,20.30
2018-08-03T06:09:48.423Z,20.40
2018-08-03T06:12:19.183Z,20.60
2018-08-03T06:14:46.968Z,20.80
2018-08-03T06:17:14.734Z,21.10
2018-08-03T06:19:42.496Z,21.40
2018-08-03T06:22:10.227Z,21.60
2018-08-03T06:24:37.983Z,21.90
2018-08-03T06:27:05.729Z,22.10
2018-08-03T06:29:33.513Z,22.10
2018-08-03T06:32:01.277Z,22.20
2018-08-03T06:34:29.015Z,22.20
2018-08-03T06:36:56.778Z,22.50
2018-08-03T06:39:24.504Z,22.60
2018-08-03T06:41:52.231Z,22.80
2018-08-03T06:44:19.987Z,23.00
2018-08-03T06:46:47.766Z,23.20
2018-08-03T06:49:15.524Z,23.20
2018-08-03T06:51:43.440Z,23.50
2018-08-03T06:54:11.383Z,23.60
2018-08-03T06:56:39.252Z,23.60
2018-08-03T06:59:07.249Z,23.70
2018-08-03T07:01:35.135Z,23.80
2018-08-03T07:04:03.076Z,23.90
2018-08-03T07:06:30.985Z,24.00
2018-08-03T07:08:58.881Z,24.20
2018-08-03T07:11:26.779Z,24.50
2018-08-03T07:13:54.778Z,24.70
2018-08-03T07:16:22.695Z,24.90
2018-08-03T07:18:50.691Z,25.10
2018-08-03T07:21:23.937Z,25.20
2018-08-03T07:23:51.972Z,25.20
2018-08-03T07:26:19.895Z,25.40
2018-08-03T07:28:47.981Z,25.70
2018-08-03T07:31:15.905Z,25.70
2018-08-03T07:33:44.042Z,25.80
2018-08-03T07:36:11.924Z,26.00
2018-08-03T07:38:39.906Z,26.00
2018-08-03T07:41:07.828Z,26.00
2018-08-03T07:43:35.834Z,26.10
2018-08-03T07:46:03.715Z,26.30
2018-08-03T07:48:31.630Z,26.60
2018-08-03T07:53:24.762Z,26.50
2018-08-03T07:55:52.557Z,26.50
2018-08-03T07:58:20.347Z,26.60
2018-08-03T08:00:48.110Z,26.90
2018-08-03T08:03:15.894Z,27.10
2018-08-03T08:05:43.668Z,27.30
2018-08-03T08:08:11.393Z,27.30
2018-08-03T08:10:39.150Z,27.50
2018-08-03T08:13:06.938Z,27.60
2018-08-03T08:15:34.776Z,27.80
2018-08-03T08:18:03.541Z,28.10
2018-08-03T08:20:31.312Z,28.00
2018-08-03T08:22:59.035Z,28.10
2018-08-03T08:25:26.746Z,28.30
2018-08-03T08:27:54.482Z,28.40
2018-08-03T08:30:22.203Z,28.30
2018-08-03T08:32:49.974Z,28.30
2018-08-03T08:35:17.763Z,28.30
2018-08-03T08:37:45.540Z,28.70
2018-08-03T08:40:13.339Z,29.20
2018-08-03T08:42:41.103Z,29.30
2018-08-03T08:45:08.929Z,29.60
2018-08-03T08:47:36.736Z,29.60
2018-08-03T08:50:05.644Z,29.70
2018-08-03T08:52:33.421Z,29.80
2018-08-03T08:55:01.232Z,29.60
2018-08-03T08:57:28.989Z,29.70
2018-08-03T08:59:56.796Z,29.60
2018-08-03T09:02:24.556Z,29.00
2018-08-03T09:04:53.106Z,29.30
2018-08-03T09:07:20.927Z,29.60
2018-08-03T09:09:49.731Z,29.80
2018-08-03T09:12:17.484Z,30.10
2018-08-03T09:14:45.221Z,29.90
2018-08-03T09:17:12.940Z,30.30
2018-08-03T09:20:14.677Z,30.60
2018-08-03T09:22:42.523Z,31.00
2018-08-03T09:25:10.301Z,30.90
2018-08-03T09:27:38.079Z,31.20
2018-08-03T09:30:08.116Z,31.10
2018-08-03T09:32:35.866Z,31.00
2018-08-03T09:35:03.763Z,31.20
2018-08-03T09:37:31.566Z,31.10
2018-08-03T09:39:59.301Z,30.50
2018-08-03T09:42:27.096Z,30.30
2018-08-03T09:44:54.921Z,30.40
2018-08-03T09:47:22.835Z,30.60
2018-08-03T09:49:50.705Z,30.80
2018-08-03T09:52:26.306Z,30.00
2018-08-03T09:54:54.148Z,30.60
2018-08-03T09:57:23.002Z,31.00
2018-08-03T09:59:50.827Z,31.00
2018-08-03T10:02:19.722Z,31.00
2018-08-03T10:04:47.653Z,30.60
2018-08-03T10:07:15.676Z,30.90
2018-08-03T10:09:43.575Z,31.20
2018-08-03T10:12:11.451Z,31.20
2018-08-03T10:14:39.304Z,31.60
2018-08-03T10:17:07.208Z,31.90
2018-08-03T10:19:35.124Z,32.00
2018-08-03T10:22:02.966Z,32.10
2018-08-03T10:24:30.921Z,31.90
2018-08-03T10:26:58.815Z,32.00
2018-08-03T10:35:32.882Z,32.10
2018-08-03T10:38:00.782Z,32.50
2018-08-03T10:40:28.579Z,32.70
2018-08-03T10:42:56.439Z,32.60
2018-08-03T10:45:24.182Z,32.60
2018-08-03T10:47:51.988Z,32.60
2018-08-03T10:50:19.759Z,32.50
2018-08-03T10:52:47.543Z,32.70
2018-08-03T10:55:15.299Z,32.60
2018-08-03T10:57:43.032Z,32.90
2018-08-03T11:00:35.318Z,33.50
2018-08-03T11:03:03.137Z,33.90
2018-08-03T11:05:30.939Z,34.00
2018-08-03T11:07:59.737Z,33.60
2018-08-03T11:10:27.502Z,33.70
2018-08-03T11:13:30.870Z,34.20
2018-08-03T11:15:58.807Z,34.40
2018-08-03T11:18:26.597Z,34.30
2018-08-03T11:20:54.419Z,34.00
2018-08-03T11:23:22.162Z,34.00
2018-08-03T11:25:50.943Z,33.70
2018-08-03T11:28:18.739Z,33.70
2018-08-03T11:30:46.509Z,33.90
2018-08-03T11:33:14.267Z,33.80
2018-08-03T11:35:42.079Z,34.20
2018-08-03T11:38:09.832Z,34.30
2018-08-03T11:40:37.577Z,33.80
2018-08-03T11:43:05.479Z,34.20
2018-08-03T11:45:33.278Z,34.40
2018-08-03T11:48:02.060Z,34.50
2018-08-03T11:50:29.861Z,34.70
2018-08-03T11:52:57.629Z,35.20
2018-08-03T11:55:25.394Z,35.00
2018-08-03T11:57:54.608Z,34.50
2018-08-03T12:00:22.561Z,34.60
2018-08-03T12:02:50.473Z,34.80
2018-08-03T12:05:18.434Z,34.70
2018-08-03T12:07:46.339Z,34.90
2018-08-03T12:10:14.222Z,34.90
2018-08-03T12:12:42.081Z,34.70
2018-08-03T12:15:10.074Z,35.00
2018-08-03T12:17:37.997Z,34.80
2018-08-03T12:20:17.010Z,34.20
2018-08-03T12:22:44.876Z,34.10
2018-08-03T12:25:21.422Z,34.50
2018-08-03T12:27:49.340Z,33.10
2018-08-03T12:30:18.252Z,32.20
2018-08-03T12:32:46.162Z,32.60
2018-08-03T12:35:17.708Z,33.50
2018-08-03T12:37:45.753Z,34.20
2018-08-03T12:40:13.764Z,35.00
2018-08-03T12:42:41.700Z,35.10
2018-08-03T12:45:09.691Z,34.80
2018-08-03T12:47:37.599Z,35.20
2018-08-03T12:50:05.529Z,35.00
2018-08-03T12:52:33.523Z,35.20
2018-08-03T12:55:01.464Z,35.50
2018-08-03T12:57:29.305Z,35.80
2018-08-03T12:59:57.059Z,35.50
2018-08-03T13:02:24.861Z,35.20
2018-08-03T13:04:53.633Z,35.10
2018-08-03T13:07:21.452Z,35.20
2018-08-03T13:09:50.494Z,35.10
2018-08-03T13:12:18.349Z,34.60
2018-08-03T13:14:46.262Z,34.40
2018-08-03T13:17:14.122Z,34.90
2018-08-03T13:19:42.001Z,35.60
2018-08-03T13:22:20.843Z,35.70
2018-08-03T13:24:48.789Z,35.50
2018-08-03T13:27:17.178Z,35.50
2018-08-03T13:29:45.020Z,35.70
2018-08-03T13:32:12.967Z,35.70
2018-08-03T13:34:40.777Z,36.10
2018-08-03T13:37:08.789Z,36.80
2018-08-03T13:39:36.622Z,37.10
2018-08-03T13:42:04.534Z,36.50
2018-08-03T13:44:32.612Z,36.20
2018-08-03T13:47:00.555Z,35.80
2018-08-03T13:49:28.574Z,35.30
2018-08-03T13:51:56.440Z,35.00
2018-08-03T13:54:24.359Z,35.00
2018-08-03T13:56:52.120Z,35.10
2018-08-03T13:59:19.904Z,34.90
2018-08-03T14:01:58.794Z,35.10
2018-08-03T14:04:26.630Z,34.80
2018-08-03T14:06:54.436Z,34.90
2018-08-03T14:09:22.219Z,35.60
2018-08-03T14:11:50.022Z,35.80
2018-08-03T14:14:17.815Z,35.40
2018-08-03T14:16:46.632Z,34.70
2018-08-03T14:19:14.419Z,34.20
2018-08-03T14:21:42.221Z,33.70
2018-08-03T14:24:09.943Z,33.60
2018-08-03T14:26:37.735Z,33.60
2018-08-03T14:29:05.544Z,33.10
2018-08-03T14:31:33.374Z,32.90
2018-08-03T14:34:01.157Z,32.80
2018-08-03T14:36:28.920Z,32.90
2018-08-03T14:38:56.795Z,32.70
2018-08-03T14:41:24.623Z,33.10
2018-08-03T14:43:53.445Z,32.70
2018-08-03T14:46:21.223Z,32.50
2018-08-03T14:48:49.028Z,32.60
2018-08-03T14:51:16.786Z,32.90
2018-08-03T14:53:44.560Z,32.70
2018-08-03T14:56:13.055Z,32.80
2018-08-03T14:58:40.979Z,32.90
2018-08-03T15:01:08.831Z,32.60
2018-08-03T15:03:36.623Z,32.70
2018-08-03T15:06:04.496Z,33.00
2018-08-03T15:08:32.269Z,32.80
2018-08-03T15:11:00.757Z,33.30
2018-08-03T15:13:28.628Z,33.60
2018-08-03T15:15:56.445Z,33.40
2018-08-03T15:18:24.194Z,33.50
2018-08-03T15:20:52.017Z,33.20
2018-08-03T15:23:19.747Z,33.20
2018-08-03T15:25:47.482Z,33.10
2018-08-03T15:28:15.218Z,32.90
2018-08-03T15:30:42.964Z,32.90
2018-08-03T15:33:10.745Z,32.90
2018-08-03T15:35:38.544Z,33.20
2018-08-03T15:38:06.366Z,33.70
2018-08-03T15:40:34.131Z,33.50
2018-08-03T15:43:02.428Z,33.10
2018-08-03T15:45:32.218Z,33.10
2018-08-03T15:48:00.541Z,32.90
2018-08-03T15:50:28.881Z,32.80
2018-08-03T15:52:57.195Z,32.90
2018-08-03T15:55:25.500Z,32.80
2018-08-03T15:57:53.837Z,32.90
2018-08-03T16:00:22.205Z,32.80
2018-08-03T16:02:50.539Z,32.70
2018-08-03T16:05:18.847Z,32.50
2018-08-03T16:07:47.126Z,32.50
2018-08-03T16:10:15.567Z,32.20
2018-08-03T16:12:43.817Z,31.70
2018-08-03T16:15:11.962Z,31.70
2018-08-03T16:17:40.138Z,31.80
2018-08-03T16:20:08.406Z,31.70
2018-08-03T16:22:36.613Z,31.80
2018-08-03T16:25:05.555Z,31.90
2018-08-03T16:27:33.717Z,31.70
2018-08-03T16:30:01.904Z,31.90
2018-08-03T16:32:32.697Z,31.60
2018-08-03T16:35:01.052Z,31.10
2018-08-03T16:37:29.392Z,30.80
2018-08-03T16:39:57.584Z,31.00
2018-08-03T16:42:25.761Z,31.00
2018-08-03T16:44:53.956Z,30.80
2018-08-03T16:47:22.287Z,30.70
2018-08-03T16:49:50.505Z,30.90
2018-08-03T16:52:23.480Z,31.20
2018-08-03T16:54:52.028Z,31.30
2018-08-03T16:57:21.017Z,31.10
2018-08-03T16:59:52.779Z,30.80
2018-08-03T17:02:21.304Z,30.60
2018-08-03T17:04:49.572Z,30.70
2018-08-03T17:07:18.057Z,30.70
2018-08-03T17:09:46.647Z,30.20
2018-08-03T17:12:15.066Z,29.40
2018-08-03T17:14:43.500Z,28.90
2018-08-03T17:17:12.003Z,28.50
2018-08-03T17:19:40.375Z,28.40
2018-08-03T17:22:08.886Z,28.30
2018-08-03T17:24:37.242Z,28.10
2018-08-03T17:27:05.780Z,27.90
2018-08-03T17:29:34.038Z,27.80
2018-08-03T17:32:02.503Z,27.80
2018-08-03T17:34:30.858Z,27.80
2018-08-03T17:36:59.227Z,27.70
2018-08-03T17:39:29.790Z,27.60
2018-08-03T17:41:58.274Z,27.60
2018-08-03T17:44:26.748Z,27.50
2018-08-03T17:46:55.075Z,27.40
2018-08-03T17:49:30.100Z,27.30
2018-08-03T17:51:58.442Z,27.20
2018-08-03T17:54:26.887Z,27.10
2018-08-03T17:56:55.205Z,27.00
2018-08-03T17:59:23.713Z,26.90
2018-08-03T18:01:52.042Z,26.80
2018-08-03T18:04:26.338Z,26.70
2018-08-03T18:10:08.703Z,26.60
2018-08-03T18:12:38.123Z,26.40
2018-08-03T18:15:07.384Z,26.40
2018-08-03T18:17:36.950Z,26.30
2018-08-03T18:20:05.615Z,26.20
2018-08-03T18:22:34.085Z,26.10
2018-08-03T18:25:14.270Z,26.00
2018-08-03T18:30:20.948Z,25.90
2018-08-03T18:32:48.702Z,25.90
2018-08-03T18:35:16.459Z,25.80
2018-08-03T18:37:44.404Z,25.70
2018-08-03T18:40:12.188Z,25.60
2018-08-03T18:42:40.061Z,25.40
2018-08-03T18:45:08.276Z,25.30
2018-08-03T18:47:36.208Z,25.10
2018-08-03T18:50:04.019Z,25.00
2018-08-03T18:52:31.954Z,24.80
2018-08-03T18:54:59.771Z,24.70
2018-08-03T18:57:27.745Z,24.60
2018-08-03T18:59:55.844Z,24.40
2018-08-03T19:02:23.655Z,24.40
2018-08-03T19:04:51.514Z,24.30
2018-08-03T19:07:41.011Z,24.20
2018-08-03T19:10:10.753Z,24.10
2018-08-03T19:12:46.164Z,23.90
2018-08-03T19:15:15.188Z,23.80
2018-08-03T19:17:43.013Z,23.60
2018-08-03T19:20:10.864Z,23.40
2018-08-03T19:22:38.881Z,23.20
2018-08-03T19:25:08.485Z,23.10
2018-08-03T19:27:36.389Z,23.00
2018-08-03T19:30:04.672Z,22.80
2018-08-03T19:32:32.517Z,22.80
2018-08-03T19:35:00.331Z,22.70
2018-08-03T19:37:28.278Z,22.60
2018-08-03T19:39:56.034Z,22.50
2018-08-03T19:42:28.534Z,22.40
2018-08-03T19:44:56.369Z,22.30
2018-08-03T19:47:25.292Z,22.30
2018-08-03T19:49:53.105Z,22.30
2018-08-03T19:52:20.875Z,22.20
2018-08-03T19:57:20.221Z,21.70
2018-08-03T19:59:48.092Z,21.60
2018-08-03T20:02:16.089Z,21.50
2018-08-03T20:04:43.928Z,21.20
2018-08-03T20:07:11.827Z,21.00
2018-08-03T20:09:50.425Z,20.80
2018-08-03T20:12:18.308Z,20.60
2018-08-03T20:14:46.222Z,20.50
2018-08-03T20:17:14.100Z,20.40
2018-08-03T20:19:42.047Z,20.50
2018-08-03T20:22:14.476Z,20.50
2018-08-03T20:24:43.424Z,20.50
2018-08-03T20:27:11.319Z,20.50
2018-08-03T20:29:39.223Z,20.50
2018-08-03T20:32:07.273Z,20.60
2018-08-03T20:34:35.095Z,20.50
2018-08-03T20:37:02.987Z,20.40
2018-08-03T20:39:30.983Z,20.40
2018-08-03T20:41:58.883Z,20.30
2018-08-03T20:44:26.867Z,20.30
2018-08-03T20:46:54.854Z,20.20
2018-08-03T20:49:22.880Z,20.20
2018-08-03T20:51:50.776Z,20.00
2018-08-03T20:54:18.673Z,19.90
2018-08-03T20:56:46.544Z,19.90
2018-08-03T20:59:14.430Z,19.80
2018-08-03T21:01:42.295Z,19.80
2018-08-03T21:04:10.281Z,19.60
2018-08-03T21:06:38.178Z,19.50
2018-08-03T21:12:31.082Z,19.40
2018-08-03T21:14:58.917Z,19.30
2018-08-03T21:17:26.678Z,19.10
2018-08-03T21:19:54.547Z,18.90
2018-08-03T21:22:22.348Z,18.90
2018-08-03T21:24:50.256Z,18.90
2018-08-03T21:27:18.050Z,19.00
2018-08-03T21:29:45.816Z,19.00
2018-08-03T21:32:13.588Z,19.00
2018-08-03T21:34:42.327Z,18.90
2018-08-03T21:40:14.308Z,18.60
2018-08-03T21:42:42.061Z,18.70
2018-08-03T21:45:09.807Z,18.70
2018-08-03T21:47:38.596Z,18.70
2018-08-03T21:50:06.464Z,18.80
2018-08-03T21:52:37.854Z,18.90
2018-08-03T21:55:05.624Z,18.80
2018-08-03T21:57:33.428Z,18.70
2018-08-03T22:00:01.171Z,18.50
2018-08-03T22:02:28.955Z,18.40
2018-08-03T22:07:49.413Z,18.10
2018-08-03T22:10:17.208Z,18.00
2018-08-03T22:12:44.948Z,18.00
2018-08-03T22:15:13.734Z,17.90
2018-08-03T22:17:41.523Z,17.80
2018-08-03T22:20:09.335Z,17.80
2018-08-03T22:25:31.896Z,17.80
2018-08-03T22:27:59.657Z,18.00
2018-08-03T22:30:27.399Z,18.00
2018-08-03T22:32:59.030Z,17.90
2018-08-03T22:35:26.756Z,17.80
2018-08-03T22:37:55.518Z,17.70
2018-08-03T22:40:23.254Z,17.80
2018-08-03T22:42:51.055Z,17.80
2018-08-03T22:45:18.726Z,17.80
2018-08-03T22:47:47.509Z,17.80
2018-08-03T22:50:15.240Z,17.80
2018-08-03T22:52:42.967Z,17.80
2018-08-03T22:55:10.693Z,17.70
2018-08-03T22:57:38.451Z,17.50
2018-08-03T23:00:06.718Z,17.50
2018-08-03T23:02:34.443Z,17.40
2018-08-03T23:05:17.586Z,17.30
2018-08-03T23:07:45.509Z,17.40
2018-08-03T23:10:13.331Z,17.30
2018-08-03T23:12:41.070Z,17.40
2018-08-03T23:15:08.859Z,17.40
2018-08-03T23:17:36.893Z,17.40
2018-08-03T23:20:05.030Z,17.30
2018-08-03T23:22:32.765Z,17.30
2018-08-03T23:25:00.510Z,17.20
2018-08-03T23:27:28.411Z,17.30
2018-08-03T23:29:56.147Z,17.20
2018-08-03T23:32:23.949Z,17.20
2018-08-03T23:34:51.695Z,17.20
2018-08-03T23:37:19.434Z,17.30
2018-08-03T23:39:47.179Z,17.30
2018-08-03T23:42:14.925Z,17.30
2018-08-03T23:44:42.698Z,17.30
2018-08-03T23:47:11.416Z,17.40
2018-08-03T23:50:20.250Z,17.40
2018-08-03T23:52:48.885Z,17.30
2018-08-03T23:55:16.699Z,17.20
2018-08-03T23:57:44.818Z,17.20
